createdAt,value
2023-02-24T00:04:54.258Z,7.79
2023-02-24T00:09:57.783Z,10.77
2023-02-24T00:15:00.677Z,11.10
2023-02-24T00:20:07.091Z,9.35
2023-02-24T00:25:10.095Z,8.29
2023-02-24T00:30:13.596Z,7.62
2023-02-24T00:35:17.268Z,7.91
2023-02-24T00:40:23.441Z,10.95
2023-02-24T00:45:26.361Z,11.64
2023-02-24T00:50:29.211Z,9.83
2023-02-24T00:55:36.639Z,8.70
2023-02-24T01:00:40.013Z,7.99
2023-02-24T01:05:42.841Z,7.50
2023-02-24T01:11:05.668Z,8.20
2023-02-24T01:16:08.820Z,11.39
2023-02-24T01:21:12.802Z,11.01
2023-02-24T01:26:16.606Z,9.33
2023-02-24T01:31:20.986Z,8.37
2023-02-24T01:36:26.390Z,7.76
2023-02-24T01:41:31.199Z,8.70
2023-02-24T01:46:36.188Z,11.72
2023-02-24T01:52:12.766Z,12.02
2023-02-24T01:57:19.971Z,10.04
2023-02-24T02:02:23.535Z,8.95
2023-02-24T02:07:29.661Z,8.30
2023-02-24T02:12:37.241Z,10.41
2023-02-24T02:18:05.841Z,12.37
2023-02-24T02:23:44.741Z,10.67
2023-02-24T02:29:22.277Z,9.20
2023-02-24T02:34:50.359Z,8.63
2023-02-24T02:40:22.531Z,11.33
2023-02-24T02:45:47.800Z,12.06
2023-02-24T02:50:57.994Z,10.10
2023-02-24T02:56:13.176Z,8.98
2023-02-24T03:01:20.968Z,9.89
2023-02-24T03:06:30.292Z,12.46
2023-02-24T03:11:33.750Z,11.44
2023-02-24T03:16:36.707Z,9.85
2023-02-24T03:21:47.395Z,8.99
2023-02-24T03:26:58.158Z,11.00
2023-02-24T03:32:12.344Z,12.77
2023-02-24T03:37:15.572Z,11.07
2023-02-24T03:42:20.605Z,9.62
2023-02-24T03:47:24.021Z,9.92
2023-02-24T03:53:22.415Z,12.43
2023-02-24T03:58:55.647Z,11.33
2023-02-24T04:04:07.911Z,9.70
2023-02-24T04:09:33.925Z,10.42
2023-02-24T04:14:58.614Z,12.69
2023-02-24T04:20:12.354Z,11.08
2023-02-24T04:25:19.869Z,9.65
2023-02-24T04:30:27.365Z,9.69
2023-02-24T04:35:30.305Z,12.39
2023-02-24T04:40:33.165Z,11.81
2023-02-24T04:45:36.416Z,10.15
2023-02-24T04:50:43.481Z,9.51
2023-02-24T04:55:51.089Z,12.09
2023-02-24T05:00:55.856Z,13.06
2023-02-24T05:06:00.466Z,11.06
2023-02-24T05:11:04.075Z,9.78
2023-02-24T05:16:09.346Z,10.97
2023-02-24T05:21:34.339Z,13.06
2023-02-24T05:26:41.909Z,11.35
2023-02-24T05:31:45.896Z,9.96
2023-02-24T05:36:49.222Z,9.51
2023-02-24T05:41:57.017Z,12.22
2023-02-24T05:47:00.085Z,12.82
2023-02-24T05:52:09.501Z,10.87
2023-02-24T05:57:17.416Z,9.76
2023-02-24T06:02:27.667Z,12.10
2023-02-24T06:07:35.468Z,12.84
2023-02-24T06:12:39.993Z,10.88
2023-02-24T06:17:43.688Z,9.69
2023-02-24T06:22:46.973Z,11.23
2023-02-24T06:27:55.635Z,13.25
2023-02-24T06:32:58.595Z,11.59
2023-02-24T06:38:01.528Z,10.07
2023-02-24T06:43:04.414Z,10.55
2023-02-24T06:48:09.178Z,13.45
2023-02-24T06:53:17.036Z,12.16
2023-02-24T06:58:20.899Z,10.48
2023-02-24T07:03:39.138Z,9.51
2023-02-24T07:08:44.110Z,10.87
2023-02-24T07:13:48.596Z,13.72
2023-02-24T07:19:02.732Z,12.12
2023-02-24T07:24:13.255Z,10.45
2023-02-24T07:29:16.800Z,11.22
2023-02-24T07:34:24.587Z,14.14
2023-02-24T07:39:27.549Z,12.92
2023-02-24T07:44:30.597Z,11.09
2023-02-24T07:49:34.476Z,10.05
2023-02-24T07:54:39.317Z,11.56
2023-02-24T07:59:45.092Z,14.46
2023-02-24T08:04:51.696Z,13.42
2023-02-24T08:10:10.098Z,11.52
2023-02-24T08:15:24.114Z,10.49
2023-02-24T08:20:52.581Z,12.75
2023-02-24T08:25:55.534Z,14.58
2023-02-24T08:30:59.151Z,12.63
2023-02-24T08:36:02.692Z,11.11
2023-02-24T08:41:17.840Z,11.53
2023-02-24T08:46:26.684Z,14.56
2023-02-24T08:51:35.647Z,13.80
2023-02-24T08:56:43.829Z,11.86
2023-02-24T09:02:04.246Z,10.73
2023-02-24T09:07:15.520Z,12.17
2023-02-24T09:12:29.149Z,14.81
2023-02-24T09:17:49.969Z,13.61
2023-02-24T09:23:03.794Z,11.73
2023-02-24T09:28:17.420Z,12.07
2023-02-24T09:33:30.049Z,14.80
2023-02-24T09:38:51.634Z,13.81
2023-02-24T09:43:59.998Z,11.89
2023-02-24T09:49:18.047Z,12.15
2023-02-24T09:54:24.787Z,15.03
2023-02-24T10:00:23.490Z,13.86
2023-02-24T10:05:38.600Z,11.70
2023-02-24T10:11:00.942Z,12.38
2023-02-24T10:16:12.079Z,15.13
2023-02-24T10:21:50.037Z,13.75
2023-02-24T10:27:01.131Z,11.79
2023-02-24T10:32:33.996Z,12.55
2023-02-24T10:37:37.008Z,15.25
2023-02-24T10:42:48.027Z,14.13
2023-02-24T10:47:57.634Z,12.21
2023-02-24T10:53:26.385Z,12.49
2023-02-24T10:58:52.691Z,15.37
2023-02-24T11:04:01.575Z,14.25
2023-02-24T11:09:29.256Z,12.38
2023-02-24T11:15:05.866Z,12.87
2023-02-24T11:20:42.307Z,15.37
2023-02-24T11:26:00.926Z,13.63
2023-02-24T11:31:34.391Z,12.10
2023-02-24T11:36:45.156Z,14.37
2023-02-24T11:41:55.602Z,15.56
2023-02-24T11:47:07.812Z,13.55
2023-02-24T11:52:27.880Z,12.22
2023-02-24T11:57:41.406Z,14.57
2023-02-24T12:03:09.574Z,14.85
2023-02-24T12:08:27.146Z,12.59
2023-02-24T12:14:17.454Z,12.81
2023-02-24T12:19:35.206Z,15.46
2023-02-24T12:24:42.242Z,14.07
2023-02-24T12:30:34.315Z,12.23
2023-02-24T12:36:03.089Z,13.86
2023-02-24T12:41:47.625Z,15.30
2023-02-24T12:47:31.940Z,13.16
2023-02-24T12:52:43.908Z,12.55
2023-02-24T12:58:17.212Z,15.06
2023-02-24T13:04:00.338Z,14.48
2023-02-24T13:09:26.965Z,12.39
2023-02-24T13:14:34.437Z,13.89
2023-02-24T13:19:43.498Z,15.05
2023-02-24T13:24:59.746Z,13.03
2023-02-24T13:30:31.397Z,11.71
2023-02-24T13:35:36.777Z,13.87
2023-02-24T13:40:39.686Z,15.01
2023-02-24T13:45:42.862Z,13.12
2023-02-24T13:51:28.630Z,12.06
2023-02-24T13:56:48.852Z,14.57
2023-02-24T14:01:59.010Z,14.84
2023-02-24T14:07:09.401Z,12.84
2023-02-24T14:12:35.336Z,11.60
2023-02-24T14:17:38.263Z,13.44
2023-02-24T14:22:53.474Z,15.26
2023-02-24T14:27:57.608Z,14.16
2023-02-24T14:33:02.137Z,12.34
2023-02-24T14:38:06.011Z,11.36
2023-02-24T14:43:15.117Z,13.39
2023-02-24T14:48:27.545Z,15.17
2023-02-24T14:53:34.434Z,13.64
2023-02-24T14:58:51.744Z,12.07
2023-02-24T15:03:59.303Z,11.17
2023-02-24T15:09:21.204Z,13.12
2023-02-24T15:14:30.106Z,15.08
2023-02-24T15:19:37.884Z,13.90
2023-02-24T15:24:40.865Z,12.28
2023-02-24T15:29:45.184Z,11.32
2023-02-24T15:34:48.212Z,11.77
2023-02-24T15:39:58.337Z,14.36
2023-02-24T15:45:31.078Z,14.42
2023-02-24T15:50:34.274Z,12.13
2023-02-24T15:55:37.208Z,10.85
2023-02-24T16:00:40.128Z,12.44
2023-02-24T16:05:43.132Z,14.41
2023-02-24T16:10:46.557Z,13.24
2023-02-24T16:15:50.551Z,11.57
2023-02-24T16:20:57.013Z,10.66
2023-02-24T16:26:00.180Z,12.48
2023-02-24T16:31:03.392Z,14.16
2023-02-24T16:36:13.504Z,12.53
2023-02-24T16:41:19.743Z,10.81
2023-02-24T16:46:23.752Z,9.85
2023-02-24T16:51:29.118Z,11.55
2023-02-24T16:56:32.085Z,12.99
2023-02-24T17:01:35.094Z,11.15
2023-02-24T17:06:38.034Z,9.81
2023-02-24T17:11:45.445Z,9.02
2023-02-24T17:16:48.546Z,9.69
2023-02-24T17:21:51.453Z,12.54
2023-02-24T17:26:58.771Z,13.03
2023-02-24T17:32:01.916Z,11.17
2023-02-24T17:37:04.871Z,10.01
2023-02-24T17:42:08.038Z,9.31
2023-02-24T17:47:12.524Z,9.91
2023-02-24T17:52:15.448Z,12.66
2023-02-24T17:57:18.386Z,12.63
2023-02-24T18:02:22.205Z,10.73
2023-02-24T18:07:28.165Z,9.61
2023-02-24T18:12:31.484Z,8.89
2023-02-24T18:17:34.484Z,9.46
2023-02-24T18:22:37.382Z,12.27
2023-02-24T18:27:40.293Z,12.83
2023-02-24T18:32:44.979Z,11.01
2023-02-24T18:37:56.745Z,9.88
2023-02-24T18:42:59.699Z,9.06
2023-02-24T18:48:05.129Z,9.60
2023-02-24T18:53:08.063Z,12.36
2023-02-24T18:58:10.932Z,12.71
2023-02-24T19:03:13.905Z,10.89
2023-02-24T19:08:16.890Z,9.76
2023-02-24T19:13:19.847Z,8.98
2023-02-24T19:18:22.720Z,10.82
2023-02-24T19:23:26.266Z,12.91
2023-02-24T19:28:29.200Z,11.60
2023-02-24T19:33:32.068Z,9.98
2023-02-24T19:38:35.010Z,9.08
2023-02-24T19:43:37.978Z,10.99
2023-02-24T19:48:41.627Z,13.09
2023-02-24T19:53:44.723Z,12.03
2023-02-24T19:58:48.780Z,10.51
2023-02-24T20:03:56.485Z,9.65
2023-02-24T20:09:00.428Z,9.00
2023-02-24T20:14:04.381Z,8.45
2023-02-24T20:19:09.479Z,9.29
2023-02-24T20:24:16.578Z,12.14
2023-02-24T20:29:21.562Z,12.60
2023-02-24T20:34:24.791Z,10.68
2023-02-24T20:39:27.804Z,9.53
2023-02-24T20:44:30.742Z,8.83
2023-02-24T20:49:33.619Z,9.29
2023-02-24T20:54:36.582Z,12.02
2023-02-24T20:59:49.247Z,12.90
2023-02-24T21:04:57.723Z,11.09
2023-02-24T21:10:00.732Z,9.93
2023-02-24T21:15:04.712Z,9.18
2023-02-24T21:20:12.712Z,8.61
2023-02-24T21:25:15.584Z,9.32
2023-02-24T21:30:18.640Z,12.15
2023-02-24T21:35:21.795Z,13.42
2023-02-24T21:40:24.890Z,11.95
2023-02-24T21:45:27.997Z,10.41
2023-02-24T21:50:30.899Z,9.45
2023-02-24T21:55:34.160Z,8.75
2023-02-24T22:00:37.216Z,9.35
2023-02-24T22:05:40.128Z,12.43
2023-02-24T22:10:43.011Z,12.90
2023-02-24T22:15:45.891Z,11.09
2023-02-24T22:20:48.771Z,9.95
2023-02-24T22:25:51.602Z,9.20
2023-02-24T22:30:57.910Z,9.93
2023-02-24T22:36:07.144Z,13.18
2023-02-24T22:41:17.822Z,13.12
2023-02-24T22:46:28.813Z,11.18
2023-02-24T22:51:31.802Z,10.09
2023-02-24T22:56:34.784Z,9.38
2023-02-24T23:01:38.697Z,8.80
2023-02-24T23:06:42.451Z,9.63
2023-02-24T23:11:46.833Z,12.95
2023-02-24T23:16:55.714Z,13.02
2023-02-24T23:21:58.782Z,11.06
2023-02-24T23:27:02.082Z,9.93
2023-02-24T23:32:05.541Z,9.18
2023-02-24T23:37:12.025Z,8.64
2023-02-24T23:42:14.933Z,8.18
2023-02-24T23:47:17.871Z,9.35
2023-02-24T23:52:20.784Z,12.80
2023-02-24T23:57:23.796Z,13.36
